Time;durP1;ratioP1;P1;durP2;ratioP2;P2;SDS_P1;SDS_P2;PMS_P1;PMS_P2;Temp;Humidity;BMP_temperature;BMP_pressure;BME280_temperature;BME280_humidity;BME280_pressure;Samples;Min_cycle;Max_cycle;Signal;HPM_P1;HPM_P2
2020/12/25 00:01:32;;;;;;;2.67;0.88;;;;;;;;;;4941740;28;20049;-59
2020/12/25 00:04:00;;;;;;;4.13;0.88;;;;;;;;;;4960230;28;20133;-59
2020/12/25 00:06:33;;;;;;;4.50;0.80;;;;;;;;;;4939780;28;20056;-60
2020/12/25 00:08:59;;;;;;;3.45;0.90;;;;;;;;;;4958818;28;20058;-59
2020/12/25 00:11:29;;;;;;;3.05;0.90;;;;;;;;;;4954394;28;20036;-59
2020/12/25 00:13:55;;;;;;;3.20;0.80;;;;;;;;;;4941876;29;20034;-60
2020/12/25 00:16:24;;;;;;;1.33;0.70;;;;;;;;;;4954310;28;20051;-59
2020/12/25 00:18:50;;;;;;;;;;;;;;;;;;4964452;28;20115;-59
2020/12/25 00:21:17;;;;;;;1.33;0.57;;;;;;;;;;4941294;28;19939;-59
2020/12/25 00:23:43;;;;;;;2.38;0.70;;;;;;;;;;4944977;28;20035;-59
2020/12/25 00:26:09;;;;;;;4.38;0.90;;;;;;;;;;4947696;28;20107;-60
2020/12/25 00:28:35;;;;;;;5.22;0.80;;;;;;;;;;4945253;28;20047;-59
2020/12/25 00:31:01;;;;;;;2.40;0.70;;;;;;;;;;4950242;28;20061;-59
2020/12/25 00:33:27;;;;;;;3.50;1.00;;;;;;;;;;4944369;28;20047;-59
2020/12/25 00:35:54;;;;;;;3.47;0.80;;;;;;;;;;4980442;28;20059;-59
2020/12/25 00:38:21;;;;;;;7.85;1.10;;;;;;;;;;4945247;28;20059;-59
2020/12/25 00:40:47;;;;;;;5.35;0.90;;;;;;;;;;4950713;28;20051;-60
2020/12/25 00:43:13;;;;;;;6.05;0.70;;;;;;;;;;4943488;28;20054;-60
2020/12/25 00:45:40;;;;;;;3.50;0.88;;;;;;;;;;4966065;28;20117;-59
2020/12/25 00:48:06;;;;;;;8.30;1.17;;;;;;;;;;4961715;28;20095;-59
2020/12/25 00:50:32;;;;;;;4.53;0.82;;;;;;;;;;4950811;28;20040;-60
2020/12/25 00:52:58;;;;;;;4.97;0.93;;;;;;;;;;4965363;28;20126;-59
2020/12/25 00:55:26;;;;;;;2.15;0.70;;;;;;;;;;4965229;28;20043;-59
2020/12/25 00:57:52;;;;;;;2.60;0.65;;;;;;;;;;4966365;28;20126;-60
2020/12/25 01:00:18;;;;;;;1.60;0.55;;;;;;;;;;4944981;28;20048;-59
2020/12/25 01:02:44;;;;;;;3.30;1.00;;;;;;;;;;4946265;28;20051;-59
2020/12/25 01:05:10;;;;;;;5.15;0.95;;;;;;;;;;4942614;28;20043;-59
2020/12/25 01:07:36;;;;;;;5.70;0.80;;;;;;;;;;4965178;28;20054;-59
2020/12/25 01:10:03;;;;;;;5.82;0.90;;;;;;;;;;4946487;28;20044;-59
2020/12/25 01:12:30;;;;;;;6.82;0.90;;;;;;;;;;4965571;28;20094;-61
2020/12/25 01:14:56;;;;;;;2.47;0.70;;;;;;;;;;4962098;28;20155;-59
2020/12/25 01:17:22;;;;;;;3.40;0.70;;;;;;;;;;4965680;28;20047;-60
2020/12/25 01:19:48;;;;;;;3.45;0.90;;;;;;;;;;4962268;28;20125;-60
2020/12/25 01:22:14;;;;;;;3.97;1.15;;;;;;;;;;4966152;28;20192;-60
2020/12/25 01:24:40;;;;;;;2.35;0.70;;;;;;;;;;4947361;28;20137;-60
2020/12/25 01:27:07;;;;;;;10.80;1.67;;;;;;;;;;4963826;28;20127;-59
2020/12/25 01:29:34;;;;;;;7.00;1.95;;;;;;;;;;4946354;28;20051;-60
2020/12/25 01:32:00;;;;;;;10.93;1.95;;;;;;;;;;4950480;28;20490;-60
2020/12/25 01:34:26;;;;;;;6.57;1.05;;;;;;;;;;4961316;28;20125;-60
2020/12/25 01:36:52;;;;;;;5.30;0.90;;;;;;;;;;4976433;28;20125;-60
2020/12/25 01:39:18;;;;;;;6.35;1.00;;;;;;;;;;4980523;28;20155;-60
2020/12/25 01:41:44;;;;;;;4.20;0.88;;;;;;;;;;4946881;28;20447;-60
2020/12/25 01:44:10;;;;;;;3.78;0.60;;;;;;;;;;4935041;28;20071;-59
2020/12/25 01:46:38;;;;;;;3.15;1.02;;;;;;;;;;4925060;28;20084;-60
2020/12/25 01:49:04;;;;;;;1.92;0.60;;;;;;;;;;4927452;29;20119;-59
2020/12/25 01:51:30;;;;;;;5.22;0.98;;;;;;;;;;4935091;28;20047;-60
2020/12/25 01:53:56;;;;;;;8.68;0.93;;;;;;;;;;4962036;28;20071;-60
2020/12/25 01:56:23;;;;;;;7.65;1.02;;;;;;;;;;4958011;28;20043;-59
2020/12/25 01:58:49;;;;;;;4.60;0.90;;;;;;;;;;4953169;28;20035;-60
2020/12/25 02:01:15;;;;;;;8.27;0.90;;;;;;;;;;4957226;28;20043;-60
2020/12/25 02:03:42;;;;;;;5.82;1.00;;;;;;;;;;4960911;28;20051;-60
2020/12/25 02:06:08;;;;;;;8.23;1.00;;;;;;;;;;4960640;28;20044;-60
2020/12/25 02:08:34;;;;;;;2.53;0.63;;;;;;;;;;4966191;28;20043;-60
2020/12/25 02:11:00;;;;;;;6.05;0.88;;;;;;;;;;4953690;28;20042;-60
2020/12/25 02:13:29;;;;;;;5.38;0.80;;;;;;;;;;4961066;28;20087;-60
2020/12/25 02:15:55;;;;;;;7.93;1.13;;;;;;;;;;4943988;28;20048;-60
2020/12/25 02:18:21;;;;;;;3.85;1.00;;;;;;;;;;4975540;28;20058;-60
2020/12/25 02:20:48;;;;;;;9.07;0.70;;;;;;;;;;4964447;28;20076;-59
2020/12/25 02:23:16;;;;;;;4.80;0.70;;;;;;;;;;4943002;28;20070;-59
2020/12/25 02:25:42;;;;;;;7.32;0.90;;;;;;;;;;4945606;28;20046;-59
2020/12/25 02:28:08;;;;;;;6.65;0.95;;;;;;;;;;4957617;28;20051;-60
2020/12/25 02:30:34;;;;;;;4.65;0.85;;;;;;;;;;4945575;28;20045;-60
2020/12/25 02:33:00;;;;;;;6.20;0.75;;;;;;;;;;4967110;28;20120;-60
2020/12/25 02:35:27;;;;;;;4.28;0.88;;;;;;;;;;4963904;28;20103;-60
2020/12/25 02:37:53;;;;;;;2.70;0.60;;;;;;;;;;4960944;28;20043;-60
2020/12/25 02:40:19;;;;;;;4.05;0.50;;;;;;;;;;4980879;28;20074;-60
2020/12/25 02:42:45;;;;;;;0.95;0.40;;;;;;;;;;4962039;28;20170;-60
2020/12/25 02:45:12;;;;;;;5.15;0.45;;;;;;;;;;4961243;28;20043;-61
2020/12/25 02:47:40;;;;;;;2.33;0.45;;;;;;;;;;4948910;28;20055;-60
2020/12/25 02:50:06;;;;;;;3.63;0.50;;;;;;;;;;4960614;28;20047;-60
2020/12/25 02:52:32;;;;;;;5.15;0.73;;;;;;;;;;4945982;28;20126;-59
2020/12/25 02:54:59;;;;;;;2.22;0.60;;;;;;;;;;4922862;28;20052;-60
2020/12/25 02:57:25;;;;;;;3.15;0.57;;;;;;;;;;4925372;29;20047;-60
2020/12/25 02:59:51;;;;;;;7.93;0.70;;;;;;;;;;4939536;28;20072;-60
2020/12/25 03:02:17;;;;;;;8.35;0.57;;;;;;;;;;4952534;28;20058;-60
2020/12/25 03:04:43;;;;;;;7.93;0.60;;;;;;;;;;4932137;28;20140;-60
2020/12/25 03:07:10;;;;;;;3.35;0.73;;;;;;;;;;4924364;29;20107;-59
2020/12/25 03:09:36;;;;;;;0.47;0.30;;;;;;;;;;4933886;28;20051;-60
2020/12/25 03:12:02;;;;;;;5.93;0.55;;;;;;;;;;4944565;28;20055;-60
2020/12/25 03:14:29;;;;;;;5.50;0.90;;;;;;;;;;4949766;28;20047;-60
2020/12/25 03:16:55;;;;;;;0.95;0.40;;;;;;;;;;4942832;28;20048;-60
2020/12/25 03:19:21;;;;;;;3.13;0.60;;;;;;;;;;4928973;28;20498;-59
2020/12/25 03:21:47;;;;;;;2.10;0.40;;;;;;;;;;4960089;28;20156;-60
2020/12/25 03:24:13;;;;;;;6.30;0.40;;;;;;;;;;4957533;28;20043;-60
2020/12/25 03:26:39;;;;;;;1.25;0.32;;;;;;;;;;4960570;28;20063;-60
2020/12/25 03:29:05;;;;;;;5.50;0.77;;;;;;;;;;4957673;28;20075;-60
2020/12/25 03:31:32;;;;;;;2.63;0.55;;;;;;;;;;4960767;28;20035;-60
2020/12/25 03:33:58;;;;;;;2.05;0.50;;;;;;;;;;4961427;28;20063;-59
2020/12/25 03:36:25;;;;;;;4.57;0.43;;;;;;;;;;4958590;28;20130;-60
2020/12/25 03:38:51;;;;;;;3.30;1.00;;;;;;;;;;4960087;28;20067;-60
2020/12/25 03:41:17;;;;;;;2.95;0.40;;;;;;;;;;4943242;28;20039;-60
2020/12/25 03:43:43;;;;;;;0.57;0.30;;;;;;;;;;4946556;28;20068;-59
2020/12/25 03:46:11;;;;;;;0.70;0.40;;;;;;;;;;4947148;28;20064;-60
2020/12/25 03:48:39;;;;;;;1.40;0.43;;;;;;;;;;4927518;29;20032;-59
2020/12/25 03:51:05;;;;;;;2.15;0.47;;;;;;;;;;4939665;28;20075;-60
2020/12/25 03:53:31;;;;;;;5.70;0.52;;;;;;;;;;4928568;29;20121;-60
2020/12/25 03:55:58;;;;;;;4.07;0.45;;;;;;;;;;4928156;28;20482;-60
2020/12/25 03:58:24;;;;;;;2.03;0.45;;;;;;;;;;4976813;28;20061;-60
2020/12/25 04:00:50;;;;;;;1.27;0.40;;;;;;;;;;4969962;28;20036;-60
2020/12/25 04:03:16;;;;;;;0.57;0.30;;;;;;;;;;4942528;29;20051;-59
2020/12/25 04:05:44;;;;;;;2.95;0.50;;;;;;;;;;4942212;28;20145;-60
2020/12/25 04:08:12;;;;;;;4.65;0.43;;;;;;;;;;4945162;28;20057;-60
2020/12/25 04:10:38;;;;;;;0.47;0.20;;;;;;;;;;4942146;28;20039;-60
2020/12/25 04:13:05;;;;;;;3.65;0.47;;;;;;;;;;4943115;28;20044;-60
2020/12/25 04:15:34;;;;;;;0.30;0.30;;;;;;;;;;4958907;28;20083;-60
2020/12/25 04:18:00;;;;;;;2.15;0.30;;;;;;;;;;4956720;28;20043;-60
2020/12/25 04:20:26;;;;;;;1.95;0.20;;;;;;;;;;4963764;28;20050;-60
2020/12/25 04:22:53;;;;;;;1.42;0.32;;;;;;;;;;4955976;28;20039;-59
2020/12/25 04:25:21;;;;;;;0.85;0.40;;;;;;;;;;4978217;28;20035;-60
2020/12/25 04:27:47;;;;;;;0.57;0.20;;;;;;;;;;4946652;28;20056;-60
2020/12/25 04:30:15;;;;;;;0.40;0.20;;;;;;;;;;4958732;28;20089;-60
2020/12/25 04:32:41;;;;;;;3.42;0.40;;;;;;;;;;4948596;28;20051;-60
2020/12/25 04:35:08;;;;;;;1.27;0.35;;;;;;;;;;4964996;28;20066;-59
2020/12/25 04:37:34;;;;;;;2.83;0.40;;;;;;;;;;4968768;28;20047;-60
2020/12/25 04:40:03;;;;;;;0.82;0.28;;;;;;;;;;4958637;28;20047;-60
2020/12/25 04:42:30;;;;;;;1.35;0.30;;;;;;;;;;4957142;28;20047;-60
2020/12/25 04:44:56;;;;;;;1.27;0.30;;;;;;;;;;4960816;28;20148;-60
2020/12/25 04:47:22;;;;;;;5.75;0.47;;;;;;;;;;4943692;28;20074;-60
2020/12/25 04:49:48;;;;;;;0.43;0.20;;;;;;;;;;4964913;28;20137;-60
2020/12/25 04:52:14;;;;;;;0.85;0.30;;;;;;;;;;4975277;28;20062;-59
2020/12/25 04:54:40;;;;;;;1.80;0.40;;;;;;;;;;4962633;28;20039;-60
2020/12/25 04:57:07;;;;;;;0.88;0.30;;;;;;;;;;4964036;28;20065;-60
2020/12/25 04:59:33;;;;;;;2.25;0.52;;;;;;;;;;4960966;28;20062;-59
2020/12/25 05:02:01;;;;;;;0.30;0.30;;;;;;;;;;4963084;28;20043;-60
2020/12/25 05:04:27;;;;;;;2.45;0.63;;;;;;;;;;4940504;28;20336;-59
2020/12/25 05:06:55;;;;;;;2.65;0.73;;;;;;;;;;4959744;28;20044;-60
2020/12/25 05:09:21;;;;;;;1.40;0.47;;;;;;;;;;4958084;28;20047;-59
2020/12/25 05:11:51;;;;;;;2.33;0.70;;;;;;;;;;4962955;28;20044;-60
2020/12/25 05:14:18;;;;;;;2.97;0.90;;;;;;;;;;4946719;28;20046;-59
2020/12/25 05:16:49;;;;;;;1.52;0.60;;;;;;;;;;4964343;28;20050;-60
2020/12/25 05:19:16;;;;;;;6.28;0.47;;;;;;;;;;4936448;28;20043;-60
2020/12/25 05:21:44;;;;;;;2.05;0.40;;;;;;;;;;4928372;28;20054;-59
2020/12/25 05:24:10;;;;;;;1.30;0.45;;;;;;;;;;4924748;28;20063;-60
2020/12/25 05:26:38;;;;;;;1.20;0.50;;;;;;;;;;4929089;28;20040;-60
2020/12/25 05:29:04;;;;;;;0.63;0.30;;;;;;;;;;4925312;28;20040;-60
2020/12/25 05:31:31;;;;;;;0.63;0.30;;;;;;;;;;4963063;28;20052;-60
2020/12/25 05:33:58;;;;;;;1.92;0.40;;;;;;;;;;4958440;28;20039;-61
2020/12/25 05:36:28;;;;;;;0.30;0.30;;;;;;;;;;4965315;28;20039;-60
2020/12/25 05:38:54;;;;;;;2.03;0.52;;;;;;;;;;4966610;28;20043;-60
2020/12/25 05:41:20;;;;;;;4.05;0.40;;;;;;;;;;4957761;28;20126;-60
2020/12/25 05:43:46;;;;;;;6.38;0.70;;;;;;;;;;4946640;28;20059;-60
2020/12/25 05:46:13;;;;;;;1.10;0.35;;;;;;;;;;4944554;28;20107;-60
2020/12/25 05:48:40;;;;;;;3.63;0.40;;;;;;;;;;4928447;28;20051;-60
2020/12/25 05:51:07;;;;;;;0.55;0.30;;;;;;;;;;4939196;28;20123;-60
2020/12/25 05:53:34;;;;;;;2.28;0.40;;;;;;;;;;4941695;28;20052;-60
2020/12/25 05:56:01;;;;;;;3.40;0.40;;;;;;;;;;4934899;28;20051;-60
2020/12/25 05:58:28;;;;;;;1.58;0.43;;;;;;;;;;4961786;28;20047;-60
2020/12/25 06:00:54;;;;;;;3.42;0.30;;;;;;;;;;4946857;28;20043;-60
2020/12/25 06:03:21;;;;;;;2.22;0.52;;;;;;;;;;4947726;28;20047;-59
2020/12/25 06:05:50;;;;;;;6.43;0.70;;;;;;;;;;4957278;28;20179;-60
2020/12/25 06:08:17;;;;;;;6.03;0.70;;;;;;;;;;4961864;28;20054;-59
2020/12/25 06:10:44;;;;;;;2.92;0.55;;;;;;;;;;4943489;28;20052;-60
2020/12/25 06:13:13;;;;;;;3.28;0.55;;;;;;;;;;4940020;28;20044;-60
2020/12/25 06:15:44;;;;;;;5.22;0.60;;;;;;;;;;4943403;28;20059;-60
2020/12/25 06:18:14;;;;;;;3.65;0.70;;;;;;;;;;4944857;28;20051;-60
2020/12/25 06:20:44;;;;;;;3.75;0.60;;;;;;;;;;4943236;28;20039;-59
2020/12/25 06:23:12;;;;;;;5.57;0.60;;;;;;;;;;4957017;28;20052;-59
2020/12/25 06:25:39;;;;;;;2.63;0.50;;;;;;;;;;4942018;28;20135;-59
2020/12/25 06:28:05;;;;;;;1.75;0.40;;;;;;;;;;4938288;28;20047;-60
2020/12/25 06:30:34;;;;;;;7.20;0.77;;;;;;;;;;4928091;28;20054;-60
2020/12/25 06:33:01;;;;;;;7.45;0.90;;;;;;;;;;4954703;28;20058;-59
2020/12/25 06:35:31;;;;;;;0.73;0.38;;;;;;;;;;4955936;28;20038;-60
2020/12/25 06:37:57;;;;;;;5.00;0.88;;;;;;;;;;4964275;28;20043;-59
2020/12/25 06:40:25;;;;;;;3.13;0.60;;;;;;;;;;4961073;28;20063;-59
2020/12/25 06:42:56;;;;;;;1.05;0.52;;;;;;;;;;4945562;28;20163;-60
2020/12/25 06:45:33;;;;;;;10.20;0.85;;;;;;;;;;4963364;28;20059;-59
2020/12/25 06:48:11;;;;;;;7.95;0.80;;;;;;;;;;4940323;28;20055;-59
2020/12/25 06:50:37;;;;;;;;;;;;;;;;;;4960645;28;20067;-59
2020/12/25 06:53:07;;;;;;;4.75;0.50;;;;;;;;;;4931502;28;20033;-59
2020/12/25 06:55:42;;;;;;;6.60;0.68;;;;;;;;;;4926367;29;20058;-60
2020/12/25 06:58:08;;;;;;;5.07;0.65;;;;;;;;;;4927922;28;20080;-60
2020/12/25 07:00:36;;;;;;;7.55;1.10;;;;;;;;;;4956829;28;20047;-60
2020/12/25 07:03:09;;;;;;;6.13;0.88;;;;;;;;;;4943611;28;20070;-60
2020/12/25 07:05:44;;;;;;;5.88;0.80;;;;;;;;;;4960820;28;20171;-60
2020/12/25 07:08:10;;;;;;;3.42;0.65;;;;;;;;;;4957458;28;20043;-60
2020/12/25 07:10:36;;;;;;;5.78;0.77;;;;;;;;;;4961003;28;20049;-59
2020/12/25 07:13:03;;;;;;;2.75;0.80;;;;;;;;;;4956885;28;20068;-60
2020/12/25 07:15:29;;;;;;;7.57;0.90;;;;;;;;;;4944882;29;20047;-59
2020/12/25 07:17:55;;;;;;;6.25;0.70;;;;;;;;;;4958171;28;20051;-59
2020/12/25 07:20:21;;;;;;;5.78;0.80;;;;;;;;;;4945921;28;20043;-60
2020/12/25 07:22:48;;;;;;;3.63;1.30;;;;;;;;;;4960865;28;20113;-60
2020/12/25 07:25:16;;;;;;;5.03;1.23;;;;;;;;;;4955530;28;20043;-59
2020/12/25 07:27:42;;;;;;;12.63;1.10;;;;;;;;;;4944149;29;20060;-60
2020/12/25 07:30:11;;;;;;;4.22;0.75;;;;;;;;;;4957409;28;20135;-60
2020/12/25 07:32:39;;;;;;;6.57;1.05;;;;;;;;;;4957925;28;20043;-60
2020/12/25 07:35:06;;;;;;;6.95;0.77;;;;;;;;;;4957145;28;20047;-59
2020/12/25 07:37:32;;;;;;;4.40;0.75;;;;;;;;;;4960510;28;20035;-59
2020/12/25 07:39:58;;;;;;;3.53;0.90;;;;;;;;;;4943559;28;20043;-60
2020/12/25 07:42:24;;;;;;;3.25;0.85;;;;;;;;;;4960569;28;20080;-60
2020/12/25 07:44:50;;;;;;;7.25;1.08;;;;;;;;;;4964072;28;20047;-59
2020/12/25 07:47:17;;;;;;;6.57;1.17;;;;;;;;;;4925642;29;20106;-59
2020/12/25 07:49:44;;;;;;;4.75;1.25;;;;;;;;;;4922841;28;20047;-59
2020/12/25 07:52:11;;;;;;;10.02;1.58;;;;;;;;;;4926145;29;20048;-60
2020/12/25 07:54:37;;;;;;;7.47;1.90;;;;;;;;;;4924631;28;20106;-60
2020/12/25 07:57:05;;;;;;;5.80;1.60;;;;;;;;;;4972295;28;20083;-60
2020/12/25 07:59:32;;;;;;;3.97;1.65;;;;;;;;;;4941612;28;20043;-60
2020/12/25 08:01:58;;;;;;;8.77;1.48;;;;;;;;;;4967478;28;20090;-60
2020/12/25 08:04:25;;;;;;;4.07;1.05;;;;;;;;;;4963423;28;20038;-59
2020/12/25 08:06:53;;;;;;;6.47;1.13;;;;;;;;;;4960283;28;20050;-60
2020/12/25 08:09:19;;;;;;;4.28;1.30;;;;;;;;;;4965973;28;20045;-59
2020/12/25 08:11:45;;;;;;;2.55;0.63;;;;;;;;;;4948000;28;20055;-59
2020/12/25 08:14:12;;;;;;;7.13;0.90;;;;;;;;;;4944943;28;20035;-59
2020/12/25 08:16:39;;;;;;;4.45;0.90;;;;;;;;;;4968658;28;20075;-60
2020/12/25 08:19:05;;;;;;;6.90;0.85;;;;;;;;;;4964421;28;20047;-60
2020/12/25 08:21:33;;;;;;;4.97;0.85;;;;;;;;;;4939319;28;20083;-60
2020/12/25 08:24:01;;;;;;;6.45;0.90;;;;;;;;;;4924756;29;20044;-60
2020/12/25 08:26:31;;;;;;;3.47;0.65;;;;;;;;;;4928634;28;20550;-60
2020/12/25 08:28:58;;;;;;;7.00;0.85;;;;;;;;;;4960055;28;20054;-60
2020/12/25 08:31:24;;;;;;;9.68;1.27;;;;;;;;;;4956370;28;20053;-59
2020/12/25 08:33:53;;;;;;;3.63;1.10;;;;;;;;;;4961341;28;20043;-60
2020/12/25 08:36:20;;;;;;;4.05;1.13;;;;;;;;;;4957553;28;20062;-60
2020/12/25 08:38:47;;;;;;;3.95;1.98;;;;;;;;;;4958446;28;20031;-60
2020/12/25 08:41:13;;;;;;;6.93;1.60;;;;;;;;;;4957278;28;20157;-60
2020/12/25 08:43:39;;;;;;;10.57;1.83;;;;;;;;;;4962076;28;20051;-59
2020/12/25 08:46:07;;;;;;;7.68;1.85;;;;;;;;;;4962922;28;20039;-60
2020/12/25 08:48:34;;;;;;;6.75;1.58;;;;;;;;;;4925199;28;20040;-60
2020/12/25 08:51:10;;;;;;;4.50;1.50;;;;;;;;;;4927480;28;20040;-60
2020/12/25 08:53:36;;;;;;;4.53;1.35;;;;;;;;;;4940101;28;20039;-60
2020/12/25 08:56:17;;;;;;;5.55;1.35;;;;;;;;;;4961892;28;20062;-60
2020/12/25 08:58:54;;;;;;;9.18;1.30;;;;;;;;;;4939504;28;20051;-60
2020/12/25 09:01:21;;;;;;;5.63;1.60;;;;;;;;;;4964595;28;20042;-60
2020/12/25 09:03:47;;;;;;;3.72;1.10;;;;;;;;;;4963780;28;20059;-60
2020/12/25 09:06:14;;;;;;;4.70;1.10;;;;;;;;;;4948549;28;20035;-60
2020/12/25 09:08:42;;;;;;;7.15;1.40;;;;;;;;;;4958433;28;20051;-59
2020/12/25 09:11:08;;;;;;;8.20;1.63;;;;;;;;;;4959997;28;20066;-60
2020/12/25 09:13:34;;;;;;;3.42;1.00;;;;;;;;;;4940253;28;20035;-59
2020/12/25 09:16:02;;;;;;;3.85;0.70;;;;;;;;;;4946063;29;20065;-59
2020/12/25 09:18:28;;;;;;;1.95;0.63;;;;;;;;;;4956646;28;20035;-59
2020/12/25 09:20:54;;;;;;;7.22;0.90;;;;;;;;;;4961900;28;20095;-60
2020/12/25 09:23:20;;;;;;;4.43;0.88;;;;;;;;;;4957310;28;20096;-59
2020/12/25 09:25:46;;;;;;;3.75;0.55;;;;;;;;;;4936009;28;20040;-59
2020/12/25 09:28:12;;;;;;;3.05;0.47;;;;;;;;;;4952413;28;20051;-60
2020/12/25 09:30:40;;;;;;;6.07;0.43;;;;;;;;;;4968133;28;20055;-59
2020/12/25 09:33:07;;;;;;;2.83;0.40;;;;;;;;;;4944310;28;20063;-59
2020/12/25 09:35:34;;;;;;;1.00;0.43;;;;;;;;;;4944661;28;20027;-60
2020/12/25 09:38:00;;;;;;;6.63;0.68;;;;;;;;;;4946193;28;20035;-60
2020/12/25 09:40:26;;;;;;;3.00;0.60;;;;;;;;;;4957035;28;20048;-59
2020/12/25 09:42:52;;;;;;;2.97;0.80;;;;;;;;;;4960718;28;20057;-59
2020/12/25 09:45:18;;;;;;;3.50;0.60;;;;;;;;;;4954924;28;20051;-59
2020/12/25 09:47:44;;;;;;;1.98;0.57;;;;;;;;;;4945356;28;20107;-59
2020/12/25 09:50:14;;;;;;;5.70;0.65;;;;;;;;;;4940876;28;20059;-61
2020/12/25 09:52:40;;;;;;;6.45;0.60;;;;;;;;;;4960372;28;20054;-60
2020/12/25 09:55:06;;;;;;;2.60;0.47;;;;;;;;;;4956757;28;20039;-60
2020/12/25 09:57:33;;;;;;;3.05;1.00;;;;;;;;;;4943968;29;20044;-60
2020/12/25 09:59:59;;;;;;;2.88;0.60;;;;;;;;;;4939713;28;20048;-60
2020/12/25 10:02:25;;;;;;;6.47;0.60;;;;;;;;;;4958690;28;20149;-59
2020/12/25 10:04:51;;;;;;;4.00;0.60;;;;;;;;;;4956385;28;20047;-60
2020/12/25 10:07:18;;;;;;;2.00;0.50;;;;;;;;;;4957645;28;20072;-60
2020/12/25 10:09:44;;;;;;;0.75;0.40;;;;;;;;;;4939973;28;20039;-59
2020/12/25 10:12:10;;;;;;;2.67;0.55;;;;;;;;;;4943602;29;20044;-60
2020/12/25 10:14:36;;;;;;;2.35;0.60;;;;;;;;;;4959380;28;20062;-59
2020/12/25 10:17:02;;;;;;;5.18;0.70;;;;;;;;;;4940846;28;20040;-60
2020/12/25 10:19:28;;;;;;;2.25;0.50;;;;;;;;;;4945990;28;20051;-59
2020/12/25 10:21:54;;;;;;;6.85;0.50;;;;;;;;;;4953529;28;20035;-60
2020/12/25 10:24:21;;;;;;;1.45;0.57;;;;;;;;;;4958119;28;20051;-59
2020/12/25 10:26:48;;;;;;;4.30;0.52;;;;;;;;;;4941056;28;20130;-60
2020/12/25 10:29:14;;;;;;;6.65;1.23;;;;;;;;;;4943939;29;20115;-59
2020/12/25 10:31:40;;;;;;;1.70;0.40;;;;;;;;;;4941465;28;20076;-60
2020/12/25 10:34:06;;;;;;;2.03;0.50;;;;;;;;;;4944868;28;20047;-59
2020/12/25 10:36:32;;;;;;;4.82;0.57;;;;;;;;;;4956318;28;20048;-59
2020/12/25 10:38:58;;;;;;;3.70;0.50;;;;;;;;;;4944819;29;20051;-60
2020/12/25 10:41:30;;;;;;;3.05;0.70;;;;;;;;;;4955208;28;20122;-59
2020/12/25 10:43:56;;;;;;;6.55;0.40;;;;;;;;;;4960148;28;20055;-60
2020/12/25 10:46:22;;;;;;;5.07;0.57;;;;;;;;;;4940240;28;20039;-59
2020/12/25 10:48:48;;;;;;;2.20;0.40;;;;;;;;;;4944001;28;20296;-60
2020/12/25 10:51:14;;;;;;;4.53;1.50;;;;;;;;;;4941859;28;20046;-59
2020/12/25 10:53:41;;;;;;;3.75;0.80;;;;;;;;;;4961566;28;20130;-59
2020/12/25 10:56:07;;;;;;;4.00;0.88;;;;;;;;;;4944456;29;20043;-60
2020/12/25 10:58:35;;;;;;;4.18;0.90;;;;;;;;;;4940722;28;20059;-59
2020/12/25 11:01:02;;;;;;;6.00;0.65;;;;;;;;;;4945569;28;20061;-59
2020/12/25 11:03:28;;;;;;;5.78;0.50;;;;;;;;;;4957531;28;20091;-59
2020/12/25 11:05:55;;;;;;;4.68;0.65;;;;;;;;;;4946867;28;20059;-60
2020/12/25 11:08:21;;;;;;;1.88;0.65;;;;;;;;;;4940767;28;20075;-59
2020/12/25 11:10:47;;;;;;;3.97;0.70;;;;;;;;;;4959010;28;20039;-60
2020/12/25 11:13:15;;;;;;;1.70;0.60;;;;;;;;;;4940377;28;20043;-59
2020/12/25 11:15:41;;;;;;;;;;;;;;;;;;4944918;28;20039;-59
2020/12/25 11:18:08;;;;;;;2.65;0.90;;;;;;;;;;4955463;28;19959;-59
2020/12/25 11:20:34;;;;;;;6.35;0.88;;;;;;;;;;4959920;28;20126;-59
2020/12/25 11:23:02;;;;;;;2.25;0.65;;;;;;;;;;4940458;28;20044;-60
2020/12/25 11:25:29;;;;;;;3.40;0.60;;;;;;;;;;4953319;28;20071;-60
2020/12/25 11:27:58;;;;;;;7.32;0.88;;;;;;;;;;4937452;28;20055;-59
2020/12/25 11:30:24;;;;;;;5.38;0.60;;;;;;;;;;4957155;28;20048;-59
2020/12/25 11:32:50;;;;;;;4.38;0.63;;;;;;;;;;4948091;28;20095;-59
2020/12/25 11:35:20;;;;;;;1.60;0.47;;;;;;;;;;4943460;28;20040;-60
2020/12/25 11:37:46;;;;;;;3.97;0.57;;;;;;;;;;4958921;28;20116;-59
2020/12/25 11:40:12;;;;;;;3.55;0.50;;;;;;;;;;4940507;28;20075;-60
2020/12/25 11:42:38;;;;;;;4.93;0.50;;;;;;;;;;4942727;28;20082;-60
2020/12/25 11:45:05;;;;;;;2.13;0.68;;;;;;;;;;4940427;28;20031;-60
2020/12/25 11:47:31;;;;;;;2.42;0.50;;;;;;;;;;4943249;29;20134;-60
2020/12/25 11:49:58;;;;;;;0.80;0.32;;;;;;;;;;4939862;28;20028;-60
2020/12/25 11:52:24;;;;;;;3.65;0.70;;;;;;;;;;4955936;28;20039;-60
2020/12/25 11:54:50;;;;;;;2.25;0.40;;;;;;;;;;4939514;28;20047;-59
2020/12/25 11:57:16;;;;;;;1.33;0.40;;;;;;;;;;4942398;28;20458;-59
2020/12/25 11:59:42;;;;;;;5.00;0.63;;;;;;;;;;4941764;28;20035;-60
2020/12/25 12:02:08;;;;;;;6.38;0.57;;;;;;;;;;4958890;28;20047;-60
2020/12/25 12:04:36;;;;;;;2.05;0.40;;;;;;;;;;4970578;28;20589;-59
2020/12/25 12:07:03;;;;;;;1.98;0.40;;;;;;;;;;4957004;28;20051;-59
2020/12/25 12:09:30;;;;;;;7.45;0.70;;;;;;;;;;4954757;28;20067;-60
2020/12/25 12:11:55;;;;;;;2.67;0.60;;;;;;;;;;4942826;28;20055;-60
2020/12/25 12:14:21;;;;;;;6.80;0.80;;;;;;;;;;4943747;28;20055;-61
2020/12/25 12:16:51;;;;;;;5.97;0.80;;;;;;;;;;4940209;28;20048;-60
2020/12/25 12:19:17;;;;;;;0.80;0.38;;;;;;;;;;4955942;28;20048;-59
2020/12/25 12:21:43;;;;;;;1.30;0.40;;;;;;;;;;4939400;28;20055;-60
2020/12/25 12:24:09;;;;;;;6.05;0.60;;;;;;;;;;4971874;28;20055;-60
2020/12/25 12:26:38;;;;;;;6.55;0.95;;;;;;;;;;4937380;28;20067;-59
2020/12/25 12:29:04;;;;;;;1.40;0.60;;;;;;;;;;4943982;28;20052;-59
2020/12/25 12:31:30;;;;;;;6.07;0.95;;;;;;;;;;4939389;28;20051;-59
2020/12/25 12:33:56;;;;;;;1.40;0.40;;;;;;;;;;4960756;28;20051;-60
2020/12/25 12:36:26;;;;;;;3.22;0.63;;;;;;;;;;4940555;28;20051;-59
2020/12/25 12:38:52;;;;;;;0.77;0.43;;;;;;;;;;4944702;28;20127;-60
2020/12/25 12:41:22;;;;;;;4.90;0.70;;;;;;;;;;4939088;28;20059;-59
2020/12/25 12:43:49;;;;;;;4.60;0.73;;;;;;;;;;4955541;28;20043;-60
2020/12/25 12:46:22;;;;;;;5.82;1.30;;;;;;;;;;4940581;28;20058;-59
2020/12/25 12:48:51;;;;;;;6.25;1.80;;;;;;;;;;4941469;29;20088;-59
2020/12/25 12:51:20;;;;;;;5.78;1.38;;;;;;;;;;4954323;28;20047;-60
2020/12/25 12:53:46;;;;;;;5.90;1.25;;;;;;;;;;4941861;28;20071;-59
2020/12/25 12:56:13;;;;;;;10.82;2.15;;;;;;;;;;4940155;28;20043;-60
2020/12/25 12:58:39;;;;;;;5.90;0.98;;;;;;;;;;4941834;29;20028;-59
2020/12/25 13:01:06;;;;;;;7.82;2.00;;;;;;;;;;4942013;28;20048;-60
2020/12/25 13:03:32;;;;;;;8.88;2.13;;;;;;;;;;4940290;28;20039;-61
2020/12/25 13:05:59;;;;;;;11.65;1.30;;;;;;;;;;4943153;28;20035;-62
2020/12/25 13:08:25;;;;;;;10.52;1.83;;;;;;;;;;4936574;28;20058;-60
2020/12/25 13:10:51;;;;;;;7.45;1.70;;;;;;;;;;4950971;28;20051;-60
2020/12/25 13:13:17;;;;;;;12.48;1.77;;;;;;;;;;4952288;28;20043;-59
2020/12/25 13:15:44;;;;;;;3.20;0.90;;;;;;;;;;4956451;28;20047;-59
2020/12/25 13:18:14;;;;;;;6.72;1.40;;;;;;;;;;4936180;28;20051;-60
2020/12/25 13:20:41;;;;;;;7.80;1.40;;;;;;;;;;4953845;28;20059;-60
2020/12/25 13:23:07;;;;;;;5.65;0.60;;;;;;;;;;4933759;28;20040;-60
2020/12/25 13:25:33;;;;;;;6.82;1.10;;;;;;;;;;4956798;28;20043;-59
2020/12/25 13:28:00;;;;;;;4.10;0.60;;;;;;;;;;4932548;28;20058;-59
2020/12/25 13:30:26;;;;;;;2.38;0.70;;;;;;;;;;4944082;28;20048;-60
2020/12/25 13:32:52;;;;;;;2.42;0.57;;;;;;;;;;4929375;28;20054;-60
2020/12/25 13:35:19;;;;;;;4.38;0.70;;;;;;;;;;4961975;28;20051;-59
2020/12/25 13:37:45;;;;;;;8.55;0.95;;;;;;;;;;4959012;28;20122;-59
2020/12/25 13:40:11;;;;;;;6.00;0.95;;;;;;;;;;4962581;28;20081;-60
2020/12/25 13:42:37;;;;;;;2.80;0.50;;;;;;;;;;4970484;28;20043;-60
2020/12/25 13:45:04;;;;;;;9.60;0.77;;;;;;;;;;4960315;28;20080;-59
2020/12/25 13:47:30;;;;;;;10.77;0.65;;;;;;;;;;4965114;28;20072;-60
2020/12/25 13:49:56;;;;;;;3.30;0.60;;;;;;;;;;4962438;28;20050;-60
2020/12/25 13:52:23;;;;;;;8.70;0.80;;;;;;;;;;4961097;28;20073;-59
2020/12/25 13:54:49;;;;;;;3.75;0.52;;;;;;;;;;4958705;28;20039;-59
2020/12/25 13:57:15;;;;;;;7.22;0.60;;;;;;;;;;4962248;28;20052;-59
2020/12/25 13:59:41;;;;;;;5.45;0.80;;;;;;;;;;4945329;28;20043;-60
2020/12/25 14:02:07;;;;;;;4.72;0.60;;;;;;;;;;4972453;28;20051;-60
2020/12/25 14:04:33;;;;;;;6.55;1.13;;;;;;;;;;4971088;28;20117;-60
2020/12/25 14:07:00;;;;;;;3.97;0.65;;;;;;;;;;4944544;28;20168;-60
2020/12/25 14:09:27;;;;;;;2.80;0.63;;;;;;;;;;4943302;28;20126;-60
2020/12/25 14:11:56;;;;;;;7.07;1.00;;;;;;;;;;4960456;28;20048;-59
2020/12/25 14:14:22;;;;;;;4.70;0.80;;;;;;;;;;4959110;28;21070;-60
2020/12/25 14:16:49;;;;;;;6.20;0.82;;;;;;;;;;4945330;28;20072;-59
2020/12/25 14:19:17;;;;;;;3.67;0.68;;;;;;;;;;4944755;28;20039;-59
2020/12/25 14:21:43;;;;;;;3.15;0.73;;;;;;;;;;4944772;28;20035;-60
2020/12/25 14:24:09;;;;;;;2.30;0.93;;;;;;;;;;4945345;28;20060;-59
2020/12/25 14:26:38;;;;;;;9.13;1.30;;;;;;;;;;4940701;28;20051;-60
2020/12/25 14:29:05;;;;;;;3.03;0.88;;;;;;;;;;4944947;29;20039;-60
2020/12/25 14:31:31;;;;;;;2.97;0.70;;;;;;;;;;4945262;28;20028;-59
2020/12/25 14:33:58;;;;;;;4.70;0.82;;;;;;;;;;4961240;28;20043;-60
2020/12/25 14:36:24;;;;;;;2.65;0.73;;;;;;;;;;4971307;28;20035;-60
2020/12/25 14:38:50;;;;;;;2.75;0.90;;;;;;;;;;4964106;28;20043;-60
2020/12/25 14:41:21;;;;;;;5.90;1.10;;;;;;;;;;4949644;28;20181;-60